createdAt,value
2019-06-07T00:07:40.118Z,17.83
2019-06-07T00:17:57.726Z,17.70
2019-06-07T00:28:17.361Z,17.59
2019-06-07T00:38:33.763Z,17.53
2019-06-07T00:48:51.500Z,17.37
2019-06-07T00:59:11.658Z,17.35
2019-06-07T01:09:25.452Z,17.24
2019-06-07T01:19:38.709Z,17.10
2019-06-07T01:40:56.388Z,17.05
2019-06-07T01:51:01.278Z,17.19
2019-06-07T02:01:05.819Z,17.36
2019-06-07T02:11:11.019Z,17.46
2019-06-07T02:21:17.085Z,17.71
2019-06-07T02:31:24.374Z,17.93
2019-06-07T02:41:35.961Z,18.04
2019-06-07T02:51:41.164Z,18.13
2019-06-07T03:01:42.767Z,18.27
2019-06-07T03:11:50.340Z,18.32
2019-06-07T03:21:54.972Z,18.33
2019-06-07T03:31:59.484Z,18.31
2019-06-07T03:42:06.746Z,18.32
2019-06-07T03:52:11.413Z,18.52
2019-06-07T04:02:15.915Z,18.85
2019-06-07T04:12:20.379Z,18.97
2019-06-07T04:22:24.908Z,19.09
2019-06-07T04:32:30.205Z,19.18
2019-06-07T04:42:41.771Z,18.91
2019-06-07T04:52:45.440Z,18.71
2019-06-07T05:02:50.679Z,18.11
2019-06-07T05:12:55.316Z,17.81
2019-06-07T05:22:59.762Z,17.54
2019-06-07T05:33:05.454Z,17.79
2019-06-07T05:43:28.189Z,17.67
2019-06-07T05:53:32.891Z,17.75
2019-06-07T06:03:38.032Z,17.93
2019-06-07T06:14:01.477Z,17.44
2019-06-07T06:23:51.597Z,17.17
2019-06-07T06:33:55.295Z,16.99
2019-06-07T06:43:59.726Z,17.16
2019-06-07T06:54:04.312Z,17.51
2019-06-07T07:04:13.036Z,17.51
2019-06-07T07:14:14.982Z,18.12
2019-06-07T07:24:22.066Z,18.48
2019-06-07T07:34:35.353Z,18.35
2019-06-07T07:44:32.407Z,18.28
2019-06-07T07:54:37.488Z,18.19
2019-06-07T08:15:22.838Z,18.01
2019-06-07T08:25:30.131Z,18.09
2019-06-07T08:36:06.027Z,18.23
2019-06-07T08:45:45.219Z,19.17
